createdAt,value
2019-04-01T00:00:40.774Z,101377.06
2019-04-01T00:06:01.388Z,101372.70
2019-04-01T00:11:21.939Z,101375.57
2019-04-01T00:16:42.403Z,101381.80
2019-04-01T00:22:02.867Z,101383.91
2019-04-01T00:27:23.434Z,101389.70
2019-04-01T00:32:44.152Z,101387.23
2019-04-01T00:38:06.045Z,101388.56
2019-04-01T00:43:46.552Z,101385.61
2019-04-01T00:49:07.275Z,101396.86
2019-04-01T00:54:27.719Z,101390.58
2019-04-01T00:59:48.262Z,101393.52
2019-04-01T01:05:09.008Z,101401.84
2019-04-01T01:10:29.420Z,101402.56
2019-04-01T01:15:50.019Z,101402.39
2019-04-01T01:21:10.915Z,101396.20
2019-04-01T01:26:31.475Z,101397.68
2019-04-01T01:31:52.099Z,101393.75
2019-04-01T01:37:12.535Z,101402.02
2019-04-01T01:42:33.795Z,101393.58
2019-04-01T01:47:55.362Z,101388.81
2019-04-01T01:53:16.237Z,101388.81
2019-04-01T01:58:36.786Z,101399.63
2019-04-01T02:03:57.297Z,101390.80
2019-04-01T02:09:17.911Z,101390.42
2019-04-01T02:14:38.388Z,101384.98
2019-04-01T02:19:58.999Z,101388.04
2019-04-01T02:25:19.646Z,101391.06
2019-04-01T02:30:40.199Z,101390.93
2019-04-01T02:36:00.484Z,101382.47
2019-04-01T02:41:21.177Z,101388.92
2019-04-01T02:46:41.782Z,101391.67
2019-04-01T02:52:02.051Z,101390.95
2019-04-01T02:57:23.126Z,101388.47
2019-04-01T03:02:43.743Z,101383.13
2019-04-01T03:08:04.080Z,101386.00
2019-04-01T03:13:24.602Z,101392.36
2019-04-01T03:18:45.122Z,101383.13
2019-04-01T03:24:05.928Z,101384.48
2019-04-01T03:29:26.375Z,101385.31
2019-04-01T03:34:47.052Z,101386.66
2019-04-01T03:40:07.565Z,101391.48
2019-04-01T03:45:30.800Z,101388.36
2019-04-01T03:50:51.391Z,101390.47
2019-04-01T03:56:12.127Z,101388.72
2019-04-01T04:01:32.685Z,101388.14
2019-04-01T04:06:53.141Z,101394.70
2019-04-01T04:12:15.537Z,101393.47
2019-04-01T04:17:36.000Z,101391.01
2019-04-01T04:22:56.732Z,101396.97
2019-04-01T04:28:17.466Z,101393.47
2019-04-01T04:33:38.060Z,101394.17
2019-04-01T04:38:58.739Z,101399.33
2019-04-01T04:44:19.074Z,101403.61
2019-04-01T04:49:39.010Z,101400.18
2019-04-01T04:54:59.983Z,101405.70
2019-04-01T05:00:20.757Z,101404.06
2019-04-01T05:05:41.168Z,101413.48
2019-04-01T05:11:01.756Z,101412.70
2019-04-01T05:16:22.253Z,101410.97
2019-04-01T05:21:43.532Z,101409.67
2019-04-01T05:27:03.745Z,101416.98
2019-04-01T05:32:27.125Z,101418.00
2019-04-01T05:37:47.358Z,101420.37
2019-04-01T05:43:07.871Z,101414.35
2019-04-01T05:48:30.377Z,101429.54
2019-04-01T05:53:50.991Z,101428.95
2019-04-01T05:59:11.306Z,101429.06
2019-04-01T06:04:31.865Z,101437.05
2019-04-01T06:09:52.631Z,101434.72
2019-04-01T06:15:13.506Z,101435.48
2019-04-01T06:20:34.140Z,101439.35
2019-04-01T06:25:54.990Z,101442.52
2019-04-01T06:31:15.724Z,101445.77
2019-04-01T06:36:38.684Z,101448.45
2019-04-01T06:41:59.175Z,101448.14
2019-04-01T06:47:19.678Z,101451.14
2019-04-01T06:52:40.595Z,101442.45
2019-04-01T06:58:01.591Z,101436.76
2019-04-01T07:03:23.625Z,101445.74
2019-04-01T07:08:44.038Z,101435.32
2019-04-01T07:14:04.893Z,101432.44
2019-04-01T07:19:25.403Z,101439.05
2019-04-01T07:24:46.992Z,101441.13
2019-04-01T07:30:07.800Z,101434.11
2019-04-01T07:35:29.424Z,101442.67
2019-04-01T07:40:50.430Z,101432.53
2019-04-01T07:46:12.381Z,101440.13
2019-04-01T07:51:33.097Z,101443.37
2019-04-01T07:56:54.376Z,101438.64
2019-04-01T08:02:14.932Z,101443.23
2019-04-01T08:07:35.791Z,101445.78
2019-04-01T08:12:56.278Z,101442.58
2019-04-01T08:18:16.912Z,101439.25
2019-04-01T08:23:37.370Z,101433.38
2019-04-01T08:28:57.884Z,101432.10
2019-04-01T08:34:17.952Z,101427.27
2019-04-01T08:39:38.630Z,101428.69
2019-04-01T08:44:40.878Z,101432.48
2019-04-01T08:49:42.985Z,101419.02
2019-04-01T08:54:45.342Z,101420.02
2019-04-01T08:59:47.405Z,101426.09
2019-04-01T09:05:08.159Z,101429.61
2019-04-01T09:10:10.683Z,101413.19
2019-04-01T09:15:13.352Z,101407.45
2019-04-01T09:20:15.505Z,101409.98
2019-04-01T09:25:17.469Z,101404.17
2019-04-01T09:30:20.806Z,101400.45
2019-04-01T09:35:22.883Z,101396.83
2019-04-01T09:40:24.699Z,101390.78
2019-04-01T09:45:26.543Z,101397.05
2019-04-01T09:50:28.484Z,101384.31
2019-04-01T09:55:30.476Z,101385.84
2019-04-01T10:00:33.341Z,101387.20
2019-04-01T10:05:35.272Z,101375.39
2019-04-01T10:10:37.188Z,101368.31
2019-04-01T10:15:40.219Z,101358.64
2019-04-01T10:20:42.592Z,101352.73
2019-04-01T10:25:44.569Z,101354.65
2019-04-01T10:30:46.707Z,101348.86
2019-04-01T10:35:48.543Z,101348.67
2019-04-01T10:40:50.363Z,101344.36
2019-04-01T10:45:52.210Z,101336.44
2019-04-01T10:50:54.271Z,101333.38
2019-04-01T10:55:56.267Z,101312.88
2019-04-01T11:00:58.152Z,101305.26
2019-04-01T11:06:00.186Z,101302.77
2019-04-01T11:11:02.203Z,101308.23
2019-04-01T11:16:04.125Z,101307.47
2019-04-01T11:21:06.070Z,101303.05
2019-04-01T11:26:07.998Z,101287.87
2019-04-01T11:31:10.173Z,101275.54
2019-04-01T11:36:13.998Z,101273.51
2019-04-01T11:41:16.764Z,101277.53
2019-04-01T11:46:18.797Z,101270.48
2019-04-01T11:51:32.683Z,101258.60
2019-04-01T11:56:26.723Z,101254.77
2019-04-01T12:01:28.658Z,101245.70
2019-04-01T12:06:30.610Z,101237.64
2019-04-01T12:11:32.568Z,101232.17
2019-04-01T12:16:34.394Z,101226.79
2019-04-01T12:21:37.671Z,101211.59
2019-04-01T12:26:40.183Z,101209.22
2019-04-01T12:31:42.035Z,101195.66
2019-04-01T12:36:43.860Z,101190.67
2019-04-01T12:41:45.802Z,101169.36
2019-04-01T12:46:49.297Z,101164.72
2019-04-01T12:51:51.166Z,101147.38
2019-04-01T12:56:53.096Z,101149.31
2019-04-01T13:01:55.928Z,101144.71
2019-04-01T13:06:57.767Z,101124.14
2019-04-01T13:11:59.640Z,101133.02
2019-04-01T13:17:01.465Z,101119.80
2019-04-01T13:22:03.311Z,101111.56
2019-04-01T13:27:08.950Z,101099.48
2019-04-01T13:32:08.993Z,101097.48
2019-04-01T13:37:10.836Z,101083.34
2019-04-01T13:42:14.670Z,101078.66
2019-04-01T13:47:17.249Z,101069.94
2019-04-01T13:52:19.156Z,101070.64
2019-04-01T13:57:20.928Z,101060.56
2019-04-01T14:02:22.781Z,101050.53
2019-04-01T14:07:24.617Z,101037.99
2019-04-01T14:12:26.470Z,101024.80
2019-04-01T14:17:28.437Z,101015.20
2019-04-01T14:22:30.728Z,101003.63
2019-04-01T14:27:32.564Z,101006.77
2019-04-01T14:32:34.509Z,100993.27
2019-04-01T14:37:36.447Z,100979.73
2019-04-01T14:42:39.660Z,100983.72
2019-04-01T14:47:56.578Z,100970.43
2019-04-01T14:52:45.727Z,100956.78
2019-04-01T14:57:47.553Z,100952.79
2019-04-01T15:02:49.415Z,100946.19
2019-04-01T15:07:51.232Z,100955.07
2019-04-01T15:13:04.296Z,100939.30
2019-04-01T15:17:59.882Z,100933.25
2019-04-01T15:23:02.011Z,100927.28
2019-04-01T15:28:03.944Z,100920.42
2019-04-01T15:33:05.890Z,100912.69
2019-04-01T15:38:08.077Z,100904.03
2019-04-01T15:43:09.927Z,100902.54
2019-04-01T15:48:11.869Z,100892.04
2019-04-01T15:53:13.830Z,100880.23
2019-04-01T15:58:15.662Z,100874.15
2019-04-01T16:03:17.817Z,100872.62
2019-04-01T16:08:19.653Z,100870.36
2019-04-01T16:13:21.524Z,100857.91
2019-04-01T16:18:23.364Z,100846.16
2019-04-01T16:23:25.203Z,100846.61
2019-04-01T16:28:27.027Z,100841.94
2019-04-01T16:33:28.866Z,100836.52
2019-04-01T16:38:31.004Z,100836.00
2019-04-01T16:43:32.867Z,100823.07
2019-04-01T16:48:34.815Z,100833.55
2019-04-01T16:53:36.867Z,100821.13
2019-04-01T16:58:38.788Z,100830.41
2019-04-01T17:03:40.651Z,100822.61
2019-04-01T17:08:42.502Z,100823.19
2019-04-01T17:13:44.434Z,100822.94
2019-04-01T17:18:46.377Z,100820.48
2019-04-01T17:23:48.494Z,100824.02
2019-04-01T17:28:50.415Z,100827.94
2019-04-01T17:33:52.372Z,100830.57
2019-04-01T17:38:54.219Z,100825.07
2019-04-01T17:43:56.087Z,100826.88
2019-04-01T17:48:57.916Z,100831.30
2019-04-01T17:54:01.082Z,100833.13
2019-04-01T17:59:03.332Z,100831.88
2019-04-01T18:04:05.181Z,100833.97
2019-04-01T18:09:07.509Z,100834.23
2019-04-01T18:14:09.351Z,100839.05
2019-04-01T18:19:11.275Z,100840.67
2019-04-01T18:24:13.663Z,100849.78
2019-04-01T18:29:15.477Z,100843.70
2019-04-01T18:34:17.428Z,100854.77
2019-04-01T18:39:19.308Z,100851.77
2019-04-01T18:44:21.291Z,100852.93
2019-04-01T18:49:23.235Z,100853.11
2019-04-01T18:54:26.360Z,100852.08
2019-04-01T18:59:28.234Z,100849.11
2019-04-01T19:04:30.359Z,100848.62
2019-04-01T19:09:33.394Z,100850.17
2019-04-01T19:14:35.389Z,100854.13
2019-04-01T19:19:39.936Z,100861.03
2019-04-01T19:24:41.026Z,100856.12
2019-04-01T19:29:43.209Z,100852.17
2019-04-01T19:34:45.200Z,100851.69
2019-04-01T19:39:47.051Z,100849.44
2019-04-01T19:44:48.881Z,100848.65
2019-04-01T19:49:50.832Z,100841.50
2019-04-01T19:54:52.700Z,100839.17
2019-04-01T19:59:54.861Z,100837.61
2019-04-01T20:04:56.809Z,100829.93
2019-04-01T20:09:58.671Z,100834.73
2019-04-01T20:15:01.035Z,100827.30
2019-04-01T20:20:04.408Z,100829.38
2019-04-01T20:25:06.842Z,100817.52
2019-04-01T20:30:09.700Z,100816.28
2019-04-01T20:35:22.786Z,100809.52
2019-04-01T20:40:16.701Z,100805.76
2019-04-01T20:45:18.651Z,100799.34
2019-04-01T20:50:21.174Z,100794.44
2019-04-01T20:55:23.048Z,100789.55
2019-04-01T21:00:24.879Z,100788.13
2019-04-01T21:05:26.726Z,100786.03
2019-04-01T21:10:28.561Z,100767.30
2019-04-01T21:15:31.522Z,100761.02
2019-04-01T21:20:33.344Z,100758.94
2019-04-01T21:25:35.349Z,100751.55
2019-04-01T21:30:37.275Z,100750.80
2019-04-01T21:35:39.152Z,100752.22
2019-04-01T21:40:41.084Z,100742.86
2019-04-01T21:45:43.051Z,100747.88
2019-04-01T21:50:45.108Z,100741.76
2019-04-01T21:55:46.961Z,100737.34
2019-04-01T22:00:54.894Z,100725.94
2019-04-01T22:05:56.754Z,100724.84
2019-04-01T22:10:58.609Z,100714.50
2019-04-01T22:16:00.548Z,100704.55
2019-04-01T22:21:02.499Z,100703.53
2019-04-01T22:26:04.311Z,100702.55
2019-04-01T22:31:06.159Z,100689.02
2019-04-01T22:36:08.002Z,100690.77
2019-04-01T22:41:10.035Z,100675.56
2019-04-01T22:46:12.006Z,100678.47
2019-04-01T22:51:13.901Z,100669.41
2019-04-01T22:56:15.707Z,100668.56
2019-04-01T23:01:17.573Z,100671.86
2019-04-01T23:06:19.632Z,100672.61
2019-04-01T23:11:21.545Z,100673.08
2019-04-01T23:16:23.427Z,100659.89
2019-04-01T23:21:25.340Z,100658.58
2019-04-01T23:26:27.168Z,100649.52
2019-04-01T23:31:29.272Z,100646.73
2019-04-01T23:36:31.218Z,100643.92
2019-04-01T23:41:33.041Z,100635.59
2019-04-01T23:46:35.004Z,100632.09
2019-04-01T23:51:37.989Z,100630.65
2019-04-01T23:56:40.871Z,100621.69
